Time;durP1;ratioP1;P1;durP2;ratioP2;P2;SDS_P1;SDS_P2;PMS_P1;PMS_P2;Temp;Humidity;BMP_temperature;BMP_pressure;BME280_temperature;BME280_humidity;BME280_pressure;Samples;Min_cycle;Max_cycle;Signal;HPM_P1;HPM_P2
2021/04/10 00:01:44;;;;;;;17.20;5.43;;;6.50;98.30;;;;;;5123866;23;20424;-79
2021/04/10 00:03:46;;;;;;;14.33;5.30;;;6.50;98.30;;;;;;5115548;23;20479;-79
2021/04/10 00:05:48;;;;;;;11.77;5.73;;;6.50;98.30;;;;;;5115699;23;20465;-78
2021/04/10 00:07:50;;;;;;;7.77;4.97;;;6.40;98.30;;;;;;5116184;23;20952;-79
2021/04/10 00:09:52;;;;;;;8.77;5.23;;;6.40;98.30;;;;;;5116399;23;20442;-79
2021/04/10 00:11:55;;;;;;;9.67;5.47;;;6.40;98.30;;;;;;5116874;23;20476;-79
2021/04/10 00:13:57;;;;;;;9.43;5.53;;;6.50;98.30;;;;;;5125224;23;21169;-78
2021/04/10 00:15:59;;;;;;;9.60;4.80;;;6.50;98.30;;;;;;5117177;23;20464;-79
2021/04/10 00:18:01;;;;;;;12.37;5.40;;;6.50;98.30;;;;;;5116967;23;20464;-79
2021/04/10 00:20:06;;;;;;;11.90;5.27;;;6.50;98.30;;;;;;5117242;23;20445;-79
2021/04/10 00:22:08;;;;;;;15.90;5.73;;;6.50;98.30;;;;;;5125528;23;21020;-79
2021/04/10 00:24:12;;;;;;;10.00;5.50;;;6.50;98.30;;;;;;5117184;23;20453;-79
2021/04/10 00:26:14;;;;;;;10.23;5.83;;;6.50;98.30;;;;;;5117187;23;20457;-79
2021/04/10 00:28:17;;;;;;;13.83;7.20;;;6.50;98.30;;;;;;5116941;23;20432;-79
2021/04/10 00:30:19;;;;;;;13.30;6.80;;;6.50;98.30;;;;;;5116583;23;20465;-79
2021/04/10 00:32:25;;;;;;;8.70;5.50;;;6.50;98.30;;;;;;5117070;23;20508;-79
2021/04/10 00:34:27;;;;;;;10.80;5.10;;;6.50;98.30;;;;;;5117449;23;20453;-79
2021/04/10 00:36:29;;;;;;;11.10;5.70;;;6.50;98.30;;;;;;5117127;23;20465;-79
2021/04/10 00:38:32;;;;;;;9.87;5.40;;;6.50;98.30;;;;;;5116689;23;20428;-79
2021/04/10 00:40:33;;;;;;;10.23;5.93;;;6.50;98.30;;;;;;5117400;23;20460;-79
2021/04/10 00:42:37;;;;;;;10.97;5.57;;;6.50;98.30;;;;;;5125429;23;20424;-79
2021/04/10 00:44:39;;;;;;;13.83;6.67;;;6.60;98.30;;;;;;5116647;23;20461;-79
2021/04/10 00:46:41;;;;;;;16.60;6.10;;;6.60;98.30;;;;;;5116995;23;20432;-79
2021/04/10 00:48:43;;;;;;;10.17;6.00;;;6.60;98.30;;;;;;5115990;23;20457;-79
2021/04/10 00:50:45;;;;;;;12.63;6.23;;;6.60;98.30;;;;;;5115987;23;20768;-78
2021/04/10 00:52:48;;;;;;;14.60;6.27;;;6.60;98.30;;;;;;5116234;23;20453;-78
2021/04/10 00:54:52;;;;;;;13.37;5.80;;;6.60;98.30;;;;;;5116320;23;20428;-78
2021/04/10 00:56:53;;;;;;;12.10;6.03;;;6.60;98.30;;;;;;5116338;23;20453;-79
2021/04/10 00:58:55;;;;;;;9.93;5.70;;;6.60;98.30;;;;;;5116185;23;20544;-79
2021/04/10 01:00:58;;;;;;;15.60;5.97;;;6.60;98.30;;;;;;5117177;23;20450;-79
2021/04/10 01:03:00;;;;;;;10.70;5.50;;;6.60;98.30;;;;;;5116733;23;20453;-78
2021/04/10 01:05:03;;;;;;;8.57;5.23;;;6.50;98.30;;;;;;5116440;23;20485;-78
2021/04/10 01:07:05;;;;;;;10.60;5.63;;;6.50;98.30;;;;;;5116420;23;20812;-78
2021/04/10 01:09:08;;;;;;;13.83;5.70;;;6.50;98.30;;;;;;5116171;23;20449;-79
2021/04/10 01:11:22;;;;;;;12.60;5.57;;;6.50;98.30;;;;;;5116908;23;20454;-80
2021/04/10 01:13:31;;;;;;;10.70;5.03;;;6.60;98.30;;;;;;5117351;23;20972;-80
2021/04/10 01:15:40;;;;;;;7.73;5.10;;;6.50;98.30;;;;;;5117277;23;20449;-79
2021/04/10 01:17:48;;;;;;;12.33;5.93;;;6.50;98.30;;;;;;5125456;23;20467;-80
2021/04/10 01:20:10;;;;;;;8.93;5.20;;;6.50;98.30;;;;;;5116463;23;20444;-79
2021/04/10 01:22:16;;;;;;;8.20;5.90;;;6.60;98.30;;;;;;5115214;23;20452;-79
2021/04/10 01:24:35;;;;;;;10.60;5.60;;;6.60;98.30;;;;;;5116362;23;21022;-79
2021/04/10 01:26:52;;;;;;;13.93;5.30;;;6.60;98.30;;;;;;5117028;23;20453;-80
2021/04/10 01:29:01;;;;;;;12.30;5.70;;;6.60;98.30;;;;;;5116661;23;20453;-79
2021/04/10 01:31:04;;;;;;;15.53;5.80;;;6.50;98.30;;;;;;5116869;23;20457;-80
2021/04/10 01:33:10;;;;;;;12.33;4.90;;;6.50;98.30;;;;;;5116695;23;20433;-80
2021/04/10 01:35:14;;;;;;;10.30;5.20;;;6.50;98.30;;;;;;5116835;23;20466;-80
2021/04/10 01:37:20;;;;;;;13.80;5.60;;;6.50;98.30;;;;;;5116900;23;20458;-80
2021/04/10 01:39:23;;;;;;;8.67;5.03;;;6.50;98.30;;;;;;5116563;23;20458;-79
2021/04/10 01:41:27;;;;;;;14.23;6.27;;;6.50;98.30;;;;;;5116769;23;20482;-79
2021/04/10 01:43:30;;;;;;;13.60;5.33;;;6.50;98.30;;;;;;5116499;23;20454;-79
2021/04/10 01:45:33;;;;;;;12.27;6.17;;;6.50;98.30;;;;;;5116475;23;20449;-79
2021/04/10 01:47:38;;;;;;;10.17;5.40;;;6.50;98.30;;;;;;5116186;23;20958;-79
2021/04/10 01:49:41;;;;;;;12.17;5.90;;;6.50;98.30;;;;;;5116482;23;20967;-79
2021/04/10 01:51:46;;;;;;;12.80;5.80;;;6.50;98.30;;;;;;5117808;23;20458;-78
2021/04/10 01:53:48;;;;;;;15.67;6.37;;;6.50;98.30;;;;;;5117749;23;20449;-78
2021/04/10 01:55:51;;;;;;;12.67;6.50;;;6.60;98.30;;;;;;5124841;23;20999;-78
2021/04/10 01:57:54;;;;;;;9.80;6.60;;;6.50;98.30;;;;;;5116756;23;20452;-78
2021/04/10 01:59:58;;;;;;;9.87;5.77;;;6.50;98.30;;;;;;5116070;23;20454;-78
2021/04/10 02:02:03;;;;;;;14.03;5.53;;;6.30;98.30;;;;;;5125960;23;20441;-78
2021/04/10 02:04:06;;;;;;;9.60;6.30;;;6.30;98.30;;;;;;5124926;23;20537;-78
2021/04/10 02:06:09;;;;;;;13.50;6.93;;;6.30;98.30;;;;;;5117114;23;20472;-78
2021/04/10 02:08:14;;;;;;;12.90;7.03;;;6.30;98.30;;;;;;5116552;23;20781;-78
2021/04/10 02:10:19;;;;;;;15.20;6.80;;;6.30;98.30;;;;;;5117633;23;20484;-79
2021/04/10 02:12:24;;;;;;;14.33;7.10;;;6.20;98.30;;;;;;5118418;23;20777;-78
2021/04/10 02:14:28;;;;;;;14.67;6.90;;;6.30;98.30;;;;;;5126810;23;20459;-78
2021/04/10 02:16:30;;;;;;;9.40;6.60;;;6.20;98.30;;;;;;5118716;23;20446;-79
2021/04/10 02:18:34;;;;;;;11.80;6.80;;;6.20;98.30;;;;;;5118291;23;20461;-79
2021/04/10 02:20:36;;;;;;;12.80;7.20;;;6.20;98.30;;;;;;5118378;23;20475;-78
2021/04/10 02:22:39;;;;;;;16.00;7.17;;;6.20;98.30;;;;;;5119124;23;21070;-79
2021/04/10 02:24:40;;;;;;;15.73;7.07;;;6.30;98.30;;;;;;5117580;23;20457;-78
2021/04/10 02:26:42;;;;;;;16.17;8.67;;;6.30;98.30;;;;;;5117488;23;20508;-78
2021/04/10 02:28:44;;;;;;;15.10;8.17;;;6.30;98.30;;;;;;5117195;23;20453;-78
2021/04/10 02:30:46;;;;;;;13.70;9.43;;;6.30;98.30;;;;;;5117518;23;20471;-78
2021/04/10 02:32:53;;;;;;;11.53;7.23;;;6.40;98.30;;;;;;5125450;23;20534;-78
2021/04/10 02:35:05;;;;;;;11.73;6.90;;;6.50;98.30;;;;;;5126407;23;20484;-78
2021/04/10 02:37:08;;;;;;;19.70;7.87;;;6.40;98.30;;;;;;5117643;23;20461;-79
2021/04/10 02:39:11;;;;;;;11.80;7.50;;;6.40;98.30;;;;;;5116101;23;20568;-79
2021/04/10 02:41:18;;;;;;;19.30;7.60;;;6.30;98.30;;;;;;5117959;23;20488;-79
2021/04/10 02:43:27;;;;;;;11.00;6.27;;;6.30;98.30;;;;;;5118546;23;20449;-79
2021/04/10 02:45:29;;;;;;;14.00;7.00;;;6.40;98.30;;;;;;5127010;23;20544;-79
2021/04/10 02:47:34;;;;;;;14.13;7.23;;;6.40;98.30;;;;;;5126149;23;21163;-78
2021/04/10 02:49:41;;;;;;;12.53;5.87;;;6.40;98.30;;;;;;5116681;23;20468;-78
2021/04/10 02:51:48;;;;;;;12.33;6.30;;;6.30;98.30;;;;;;5117442;23;20458;-78
2021/04/10 02:53:53;;;;;;;15.80;6.23;;;6.30;98.30;;;;;;5117210;23;20512;-78
2021/04/10 02:55:57;;;;;;;12.43;7.00;;;6.30;98.30;;;;;;5117129;23;20450;-78
2021/04/10 02:58:02;;;;;;;14.77;6.17;;;6.30;98.30;;;;;;5116390;23;20870;-78
2021/04/10 03:00:07;;;;;;;12.20;5.77;;;6.40;98.30;;;;;;5117018;23;20456;-78
2021/04/10 03:02:10;;;;;;;17.40;6.40;;;6.40;98.30;;;;;;5116996;23;20814;-78
2021/04/10 03:04:13;;;;;;;14.03;5.93;;;6.40;98.30;;;;;;5117249;23;20450;-78
2021/04/10 03:06:15;;;;;;;14.13;5.30;;;6.40;98.30;;;;;;5117786;23;20432;-78
2021/04/10 03:08:20;;;;;;;13.30;5.60;;;6.40;98.30;;;;;;5116785;23;20450;-78
2021/04/10 03:10:23;;;;;;;10.97;5.10;;;6.30;98.30;;;;;;5124312;23;21138;-78
2021/04/10 03:12:26;;;;;;;7.80;4.80;;;6.30;98.30;;;;;;5115583;23;20468;-78
2021/04/10 03:14:28;;;;;;;11.33;5.33;;;6.20;98.30;;;;;;5116111;23;20479;-78
2021/04/10 03:16:32;;;;;;;10.50;4.53;;;6.20;98.30;;;;;;5124473;23;20450;-78
2021/04/10 03:18:35;;;;;;;10.07;4.60;;;6.30;98.30;;;;;;5116153;23;20439;-78
2021/04/10 03:20:37;;;;;;;14.63;6.37;;;6.30;98.30;;;;;;5115857;23;20459;-78
2021/04/10 03:22:41;;;;;;;10.63;5.03;;;6.30;98.30;;;;;;5124785;23;20442;-78
2021/04/10 03:24:45;;;;;;;6.60;4.30;;;6.30;98.30;;;;;;5116804;23;20457;-78
2021/04/10 03:26:47;;;;;;;11.37;4.43;;;6.30;98.30;;;;;;5116670;23;20529;-78
2021/04/10 03:28:50;;;;;;;10.90;4.40;;;6.30;98.30;;;;;;5116239;23;20517;-79
2021/04/10 03:30:53;;;;;;;8.17;4.30;;;6.30;98.30;;;;;;5116920;23;20757;-78
2021/04/10 03:32:56;;;;;;;9.00;4.10;;;6.40;98.30;;;;;;5115910;23;20508;-78
2021/04/10 03:34:59;;;;;;;10.80;4.40;;;6.40;98.30;;;;;;5116978;23;20450;-78
2021/04/10 03:37:01;;;;;;;14.13;5.07;;;6.30;98.30;;;;;;5116851;23;20537;-79
2021/04/10 03:39:03;;;;;;;12.27;5.00;;;6.30;98.30;;;;;;5123853;23;20445;-78
2021/04/10 03:41:07;;;;;;;6.97;4.30;;;6.30;98.30;;;;;;5116085;23;20450;-78
2021/04/10 03:43:09;;;;;;;8.53;4.10;;;6.30;98.30;;;;;;5116106;23;20429;-78
2021/04/10 03:45:15;;;;;;;8.57;4.63;;;6.20;98.30;;;;;;5116181;23;20408;-78
2021/04/10 03:47:27;;;;;;;15.20;5.40;;;6.20;98.30;;;;;;5123920;23;20424;-78
2021/04/10 03:49:29;;;;;;;14.33;4.47;;;6.20;98.30;;;;;;5114774;23;20461;-78
2021/04/10 03:51:31;;;;;;;9.27;4.10;;;6.20;98.30;;;;;;5124028;23;20447;-78
2021/04/10 03:53:33;;;;;;;11.40;4.27;;;6.20;98.30;;;;;;5116322;23;20461;-78
2021/04/10 03:55:35;;;;;;;11.80;4.77;;;6.30;98.30;;;;;;5116994;23;20464;-79
2021/04/10 03:57:37;;;;;;;10.87;4.47;;;6.30;98.30;;;;;;5116442;23;20458;-79
2021/04/10 03:59:39;;;;;;;6.93;4.73;;;6.30;98.30;;;;;;5115569;23;20457;-78
2021/04/10 04:01:41;;;;;;;8.83;5.40;;;6.30;98.30;;;;;;5116344;23;20454;-78
2021/04/10 04:03:43;;;;;;;7.63;3.50;;;6.30;98.30;;;;;;5115957;23;20547;-78
2021/04/10 04:05:45;;;;;;;11.83;4.23;;;6.30;98.30;;;;;;5116460;23;20968;-78
2021/04/10 04:07:47;;;;;;;9.93;4.17;;;6.30;98.30;;;;;;5116698;23;20818;-78
2021/04/10 04:09:48;;;;;;;7.37;4.10;;;6.30;98.30;;;;;;5116462;23;20450;-78
2021/04/10 04:11:52;;;;;;;11.93;4.43;;;6.30;98.30;;;;;;5117633;23;20542;-78
2021/04/10 04:13:55;;;;;;;11.60;3.60;;;6.30;98.30;;;;;;5117052;23;20454;-78
2021/04/10 04:15:57;;;;;;;7.87;3.90;;;6.30;98.30;;;;;;5117655;23;21009;-78
2021/04/10 04:18:00;;;;;;;11.43;4.07;;;6.30;98.30;;;;;;5117481;23;20465;-78
2021/04/10 04:20:02;;;;;;;11.73;4.17;;;6.40;98.30;;;;;;5115405;23;20439;-79
2021/04/10 04:22:04;;;;;;;13.90;4.43;;;6.30;98.30;;;;;;5117150;23;20456;-79
2021/04/10 04:24:07;;;;;;;13.73;4.30;;;6.30;98.30;;;;;;5116314;23;20785;-79
2021/04/10 04:26:09;;;;;;;13.50;4.07;;;6.20;98.30;;;;;;5116784;23;20455;-79
2021/04/10 04:28:10;;;;;;;12.83;4.53;;;6.20;98.30;;;;;;5117014;23;20468;-79
2021/04/10 04:30:14;;;;;;;7.57;3.53;;;6.20;98.30;;;;;;5115404;23;20776;-78
2021/04/10 04:32:16;;;;;;;12.80;4.60;;;6.20;98.30;;;;;;5116507;23;20780;-78
2021/04/10 04:34:22;;;;;;;13.43;4.20;;;6.20;98.30;;;;;;5117071;23;20792;-78
2021/04/10 04:36:24;;;;;;;7.50;3.80;;;6.10;98.30;;;;;;5124915;23;20459;-78
2021/04/10 04:38:26;;;;;;;7.37;3.60;;;6.20;98.30;;;;;;5116377;23;20479;-79
2021/04/10 04:40:27;;;;;;;9.40;3.97;;;6.20;98.30;;;;;;5115532;23;20453;-79
2021/04/10 04:42:29;;;;;;;12.07;4.10;;;6.20;98.30;;;;;;5116166;23;20453;-78
2021/04/10 04:44:31;;;;;;;7.73;4.30;;;6.20;98.30;;;;;;5116067;23;20477;-78
2021/04/10 04:46:34;;;;;;;9.07;4.30;;;6.20;98.30;;;;;;5116719;23;20457;-79
2021/04/10 04:48:38;;;;;;;9.00;3.73;;;6.20;98.30;;;;;;5115730;23;20490;-78
2021/04/10 04:50:39;;;;;;;8.43;3.90;;;6.10;98.30;;;;;;5115713;23;20465;-79
2021/04/10 04:52:41;;;;;;;5.70;3.40;;;6.10;98.30;;;;;;5115947;23;20450;-78
2021/04/10 04:54:43;;;;;;;21.67;3.97;;;6.10;98.30;;;;;;5115502;23;20443;-78
2021/04/10 04:56:54;;;;;;;9.10;3.87;;;6.20;98.30;;;;;;5117057;23;20453;-79
2021/04/10 04:58:56;;;;;;;8.73;3.93;;;6.20;98.30;;;;;;5124840;23;20484;-79
2021/04/10 05:00:58;;;;;;;13.50;4.17;;;6.10;98.30;;;;;;5117653;23;20761;-78
2021/04/10 05:03:00;;;;;;;13.37;3.90;;;6.10;98.30;;;;;;5118319;23;20460;-78
2021/04/10 05:05:05;;;;;;;8.60;3.80;;;6.10;98.30;;;;;;5117388;23;20454;-79
2021/04/10 05:07:07;;;;;;;9.90;4.10;;;6.10;98.30;;;;;;5117734;23;20461;-79
2021/04/10 05:09:09;;;;;;;9.27;3.50;;;6.10;98.30;;;;;;5117035;23;20460;-78
2021/04/10 05:11:11;;;;;;;6.03;3.50;;;6.20;98.30;;;;;;5117473;23;20454;-78
2021/04/10 05:13:15;;;;;;;7.97;4.00;;;6.20;98.30;;;;;;5117685;23;20450;-79
2021/04/10 05:15:17;;;;;;;14.10;4.23;;;6.20;98.30;;;;;;5118216;23;20464;-78
2021/04/10 05:17:19;;;;;;;11.50;4.60;;;6.20;98.30;;;;;;5125617;23;20425;-79
2021/04/10 05:19:21;;;;;;;4.77;3.40;;;6.20;98.30;;;;;;5114453;23;20945;-79
2021/04/10 05:21:24;;;;;;;13.17;4.20;;;6.20;98.30;;;;;;5115211;23;20457;-79
2021/04/10 05:23:25;;;;;;;6.63;3.33;;;6.20;98.30;;;;;;5114907;23;20958;-79
2021/04/10 05:25:27;;;;;;;6.70;3.60;;;6.20;98.30;;;;;;5123198;23;20511;-79
2021/04/10 05:27:32;;;;;;;13.00;3.83;;;6.10;98.30;;;;;;5123598;23;20425;-79
2021/04/10 05:29:34;;;;;;;11.37;3.50;;;6.20;98.30;;;;;;5114284;23;20456;-79
2021/04/10 05:31:36;;;;;;;10.10;4.43;;;6.20;98.30;;;;;;5115056;23;20432;-78
2021/04/10 05:33:38;;;;;;;6.67;3.70;;;6.20;98.30;;;;;;5114622;23;20935;-79
2021/04/10 05:35:41;;;;;;;14.23;5.20;;;6.20;98.30;;;;;;5115196;23;20776;-79
2021/04/10 05:37:43;;;;;;;6.73;3.70;;;6.20;98.30;;;;;;5114929;23;20800;-79
2021/04/10 05:39:45;;;;;;;9.73;3.70;;;6.30;98.30;;;;;;5114331;23;20533;-79
2021/04/10 05:41:47;;;;;;;7.57;4.30;;;6.30;98.30;;;;;;5114979;23;20463;-79
2021/04/10 05:43:48;;;;;;;9.70;4.03;;;6.30;98.30;;;;;;5115375;23;20977;-79
2021/04/10 05:45:50;;;;;;;9.37;4.10;;;6.30;98.30;;;;;;5114844;23;20436;-79
2021/04/10 05:47:52;;;;;;;7.83;4.17;;;6.40;98.30;;;;;;5115226;23;20953;-79
2021/04/10 05:49:54;;;;;;;8.07;4.00;;;6.40;98.30;;;;;;5113967;23;20975;-79
2021/04/10 05:51:57;;;;;;;7.80;3.53;;;6.40;98.30;;;;;;5115173;23;20428;-79
2021/04/10 05:53:59;;;;;;;11.03;4.27;;;6.40;98.30;;;;;;5115019;23;20454;-79
2021/04/10 05:56:01;;;;;;;12.57;4.70;;;6.40;98.30;;;;;;5114669;23;20436;-78
2021/04/10 05:58:02;;;;;;;6.90;3.80;;;6.40;98.30;;;;;;5114618;23;20457;-78
2021/04/10 06:00:05;;;;;;;12.37;4.03;;;6.40;98.30;;;;;;5113230;23;20454;-78
2021/04/10 06:02:08;;;;;;;7.53;3.53;;;6.40;98.30;;;;;;5114952;23;20434;-79
2021/04/10 06:04:10;;;;;;;6.80;3.67;;;6.40;98.30;;;;;;5114958;23;20462;-79
2021/04/10 06:06:12;;;;;;;7.27;4.47;;;6.50;98.30;;;;;;5115103;23;20510;-79
2021/04/10 06:08:15;;;;;;;13.07;3.63;;;6.50;98.30;;;;;;5114402;23;20435;-79
2021/04/10 06:10:19;;;;;;;12.00;5.03;;;6.40;98.30;;;;;;5114278;23;20429;-79
2021/04/10 06:12:20;;;;;;;11.93;4.40;;;6.50;98.30;;;;;;5114702;23;20927;-79
2021/04/10 06:14:22;;;;;;;10.00;4.10;;;6.50;98.30;;;;;;5114111;23;20432;-78
2021/04/10 06:16:25;;;;;;;7.63;4.57;;;6.50;98.30;;;;;;5114212;23;20942;-79
2021/04/10 06:18:27;;;;;;;24.27;12.70;;;6.50;98.30;;;;;;5114699;23;20825;-79
2021/04/10 06:20:29;;;;;;;23.60;11.83;;;6.60;98.30;;;;;;5114173;23;20444;-79
2021/04/10 06:22:31;;;;;;;11.47;5.63;;;6.60;98.30;;;;;;5114277;23;20454;-79
2021/04/10 06:24:33;;;;;;;14.07;4.90;;;6.60;98.30;;;;;;5115074;23;20458;-79
2021/04/10 06:26:35;;;;;;;6.47;3.40;;;6.60;98.30;;;;;;5116795;23;20453;-79
2021/04/10 06:28:37;;;;;;;11.90;4.43;;;6.50;98.30;;;;;;5125397;23;20459;-79
2021/04/10 06:30:39;;;;;;;8.10;3.63;;;6.60;98.30;;;;;;5117724;23;20443;-79
2021/04/10 06:32:41;;;;;;;7.87;3.40;;;6.60;98.30;;;;;;5118483;23;20440;-79
2021/04/10 06:34:43;;;;;;;6.33;3.47;;;6.70;98.30;;;;;;5117947;23;20503;-79
2021/04/10 06:36:45;;;;;;;6.60;3.10;;;6.70;98.30;;;;;;5118241;23;20454;-79
2021/04/10 06:38:47;;;;;;;11.33;4.03;;;6.60;98.30;;;;;;5118325;23;20483;-79
2021/04/10 06:40:49;;;;;;;9.97;3.80;;;6.60;98.30;;;;;;5118981;23;20450;-79
2021/04/10 06:42:51;;;;;;;13.83;3.90;;;6.60;98.30;;;;;;5118694;23;21012;-79
2021/04/10 06:44:54;;;;;;;6.40;3.53;;;6.70;98.30;;;;;;5126902;23;20457;-79
2021/04/10 06:46:58;;;;;;;9.03;4.13;;;6.70;98.30;;;;;;5119182;23;20540;-79
2021/04/10 06:49:01;;;;;;;7.20;3.60;;;6.70;98.30;;;;;;5123005;23;20461;-80
2021/04/10 06:51:04;;;;;;;9.30;3.10;;;6.90;98.30;;;;;;5123589;23;21133;-80
2021/04/10 06:53:13;;;;;;;12.30;5.43;;;7.00;98.30;;;;;;5115406;23;20478;-80
2021/04/10 06:55:17;;;;;;;11.23;3.30;;;7.00;98.30;;;;;;5115596;23;20561;-80
2021/04/10 06:57:22;;;;;;;6.80;3.83;;;7.00;98.30;;;;;;5123689;23;20421;-79
2021/04/10 06:59:34;;;;;;;41.40;19.03;;;7.00;98.30;;;;;;5113358;23;20829;-80
2021/04/10 07:01:37;;;;;;;57.50;30.57;;;7.10;98.30;;;;;;5115067;23;20427;-80
2021/04/10 07:03:39;;;;;;;59.57;29.23;;;7.00;98.30;;;;;;5115195;23;20536;-79
2021/04/10 07:05:41;;;;;;;19.20;9.53;;;7.00;98.30;;;;;;5115260;23;20454;-79
2021/04/10 07:07:44;;;;;;;13.77;5.03;;;7.00;98.30;;;;;;5115052;23;20548;-79
2021/04/10 07:09:45;;;;;;;6.80;3.30;;;7.00;98.30;;;;;;5114608;23;20432;-79
2021/04/10 07:11:48;;;;;;;6.50;3.77;;;7.00;98.30;;;;;;5115378;23;21031;-80
2021/04/10 07:13:51;;;;;;;6.63;3.30;;;7.00;98.30;;;;;;5115003;23;20801;-79
2021/04/10 07:15:53;;;;;;;9.53;3.30;;;7.00;98.30;;;;;;5115280;23;20454;-79
2021/04/10 07:17:56;;;;;;;5.63;2.70;;;7.10;98.30;;;;;;5114774;23;20577;-79
2021/04/10 07:19:58;;;;;;;7.73;3.30;;;7.20;98.30;;;;;;5113847;23;20432;-79
2021/04/10 07:22:05;;;;;;;8.40;3.00;;;7.30;98.30;;;;;;5114546;23;20428;-79
2021/04/10 07:24:07;;;;;;;14.20;8.60;;;7.30;98.30;;;;;;5115284;23;20484;-79
2021/04/10 07:26:10;;;;;;;63.10;35.20;;;7.30;98.30;;;;;;5115292;23;20454;-80
2021/04/10 07:28:27;;;;;;;81.50;38.73;;;7.30;98.30;;;;;;5114971;23;20461;-79
2021/04/10 07:30:50;;;;;;;33.03;18.27;;;7.30;98.30;;;;;;5114334;23;20752;-79
2021/04/10 07:32:52;;;;;;;9.87;5.37;;;7.40;98.30;;;;;;5115141;23;20820;-79
2021/04/10 07:34:57;;;;;;;7.73;3.53;;;7.50;98.30;;;;;;5123382;23;20428;-79
2021/04/10 07:37:00;;;;;;;6.93;3.30;;;7.50;98.30;;;;;;5114762;23;20449;-79
2021/04/10 07:39:02;;;;;;;10.00;3.60;;;7.40;98.30;;;;;;5113079;23;21425;-78
2021/04/10 07:41:15;;;;;;;12.53;5.40;;;7.50;98.30;;;;;;5113150;23;20420;-79
2021/04/10 07:43:23;;;;;;;26.10;12.47;;;7.70;98.30;;;;;;5113367;23;20461;-79
2021/04/10 07:45:29;;;;;;;40.90;20.00;;;7.80;98.30;;;;;;5121297;23;21232;-80
2021/04/10 07:47:36;;;;;;;17.47;7.13;;;7.90;98.30;;;;;;5113207;23;20921;-78
2021/04/10 07:49:38;;;;;;;7.10;3.17;;;7.90;98.30;;;;;;5112140;23;20457;-78
2021/04/10 07:51:53;;;;;;;12.97;4.00;;;7.90;98.30;;;;;;5112911;23;20511;-79
2021/04/10 07:53:56;;;;;;;6.63;3.17;;;7.90;98.30;;;;;;5113580;23;20828;-79
2021/04/10 07:55:59;;;;;;;10.80;3.13;;;7.90;98.30;;;;;;5112548;23;20787;-78
2021/04/10 07:58:28;;;;;;;7.27;2.90;;;7.90;98.30;;;;;;5112983;23;20453;-79
2021/04/10 08:00:41;;;;;;;7.43;2.80;;;7.90;98.30;;;;;;5113281;23;20452;-79
2021/04/10 08:02:44;;;;;;;8.37;3.07;;;7.90;98.30;;;;;;5114636;23;20428;-79
2021/04/10 08:04:55;;;;;;;8.80;3.07;;;8.00;98.30;;;;;;5117498;22;20552;-79
2021/04/10 08:06:59;;;;;;;46.97;24.67;;;8.10;98.30;;;;;;5116108;23;20457;-79
2021/04/10 08:09:01;;;;;;;41.03;21.60;;;8.20;98.30;;;;;;5115607;23;20456;-80
2021/04/10 08:11:04;;;;;;;56.30;31.20;;;8.40;98.30;;;;;;5116645;23;20791;-80
2021/04/10 08:13:09;;;;;;;66.77;37.83;;;8.60;98.30;;;;;;5116230;23;20454;-79
2021/04/10 08:15:25;;;;;;;17.30;8.30;;;8.90;98.30;;;;;;5116188;23;20548;-80
2021/04/10 08:17:35;;;;;;;7.80;4.57;;;8.90;95.90;;;;;;5115517;23;20847;-80
2021/04/10 08:19:38;;;;;;;3.93;3.00;;;8.90;95.30;;;;;;5124564;23;20745;-80
2021/04/10 08:21:48;;;;;;;10.10;3.20;;;9.00;94.80;;;;;;5124183;23;20449;-80
2021/04/10 08:23:49;;;;;;;6.57;3.53;;;9.00;93.40;;;;;;5116290;23;20449;-79
2021/04/10 08:25:52;;;;;;;6.73;2.87;;;9.00;93.10;;;;;;5114979;23;20450;-80
2021/04/10 08:27:56;;;;;;;9.80;3.27;;;8.90;93.70;;;;;;5123172;23;20449;-78
2021/04/10 08:29:58;;;;;;;8.10;3.47;;;9.00;93.40;;;;;;5115221;23;20460;-79
2021/04/10 08:32:01;;;;;;;7.07;3.37;;;9.20;92.70;;;;;;5117140;23;20457;-79
2021/04/10 08:34:03;;;;;;;6.53;2.63;;;9.40;90.80;;;;;;5117135;23;20991;-79
2021/04/10 08:36:09;;;;;;;9.00;3.43;;;9.30;88.60;;;;;;5125295;23;20452;-81
2021/04/10 08:38:12;;;;;;;11.50;4.73;;;9.40;89.70;;;;;;5116836;23;20457;-78
2021/04/10 08:40:17;;;;;;;7.13;4.00;;;9.40;89.10;;;;;;5117632;23;20464;-81
2021/04/10 08:42:20;;;;;;;5.23;2.87;;;9.40;88.20;;;;;;5129842;23;20449;-79
2021/04/10 08:44:27;;;;;;;6.53;3.90;;;9.40;87.30;;;;;;5124772;23;20456;-79
2021/04/10 08:46:31;;;;;;;10.87;3.23;;;9.50;88.90;;;;;;5117662;23;20540;-79
2021/04/10 08:48:35;;;;;;;5.57;2.77;;;9.60;88.40;;;;;;5117689;23;20453;-81
2021/04/10 08:50:39;;;;;;;10.53;3.10;;;9.70;88.10;;;;;;5116370;23;20564;-78
2021/04/10 08:52:42;;;;;;;6.43;3.40;;;9.80;87.70;;;;;;5117043;23;20457;-79
2021/04/10 08:54:45;;;;;;;6.53;3.43;;;9.90;86.50;;;;;;5116631;23;20453;-80
2021/04/10 08:56:50;;;;;;;6.20;3.00;;;9.90;86.30;;;;;;5116864;23;20520;-80
2021/04/10 08:58:52;;;;;;;4.33;2.60;;;10.10;85.20;;;;;;5115930;23;20924;-79
2021/04/10 09:00:55;;;;;;;5.33;2.67;;;10.20;85.50;;;;;;5116922;23;20445;-79
2021/04/10 09:02:59;;;;;;;7.27;2.77;;;10.30;85.90;;;;;;5116553;23;20454;-78
2021/04/10 09:05:09;;;;;;;12.20;2.60;;;10.40;85.40;;;;;;5123738;23;20461;-79
2021/04/10 09:07:10;;;;;;;12.47;3.30;;;10.50;85.10;;;;;;5123412;23;20928;-81
2021/04/10 09:09:32;;;;;;;8.47;3.73;;;10.50;85.40;;;;;;5115378;23;20453;-78
2021/04/10 09:11:34;;;;;;;5.10;3.07;;;10.60;83.70;;;;;;5116369;23;20457;-82
2021/04/10 09:13:44;;;;;;;5.97;3.07;;;10.70;84.30;;;;;;5116387;23;20460;-80
2021/04/10 09:15:46;;;;;;;5.47;2.83;;;10.90;84.70;;;;;;5116506;23;20545;-81
2021/04/10 09:17:58;;;;;;;8.83;3.07;;;11.10;84.60;;;;;;5116856;23;20787;-82
2021/04/10 09:20:00;;;;;;;7.50;3.03;;;11.20;84.50;;;;;;5115919;23;20480;-81
2021/04/10 09:22:02;;;;;;;7.13;3.40;;;11.20;84.30;;;;;;5116905;23;21091;-80
2021/04/10 09:24:41;;;;;;;7.60;2.97;;;11.30;83.90;;;;;;5117690;23;20453;-80
2021/04/10 09:27:04;;;;;;;8.30;2.60;;;11.10;83.10;;;;;;5016904;23;20569;-79
2021/04/10 09:29:18;;;;;;;8.70;3.20;;;11.20;82.90;;;;;;5090283;23;20880;-82
2021/04/10 09:31:35;;;;;;;8.40;2.60;;;11.10;81.70;;;;;;5126492;23;20453;-81
2021/04/10 09:33:38;;;;;;;5.40;2.50;;;11.30;82.40;;;;;;5120778;23;20457;-81
2021/04/10 09:35:39;;;;;;;6.10;2.70;;;11.30;81.50;;;;;;5121042;23;20453;-79
2021/04/10 09:37:50;;;;;;;6.63;3.27;;;11.20;81.30;;;;;;5122110;23;20545;-79
2021/04/10 09:39:56;;;;;;;33.73;19.07;;;11.30;81.10;;;;;;5120713;23;20446;-81
2021/04/10 09:41:57;;;;;;;23.50;13.97;;;11.20;81.40;;;;;;5121433;23;20450;-81
2021/04/10 09:44:08;;;;;;;26.60;16.73;;;11.20;82.20;;;;;;5129824;23;20446;-79
2021/04/10 09:46:34;;;;;;;20.10;11.70;;;11.10;81.30;;;;;;5127920;23;20532;-81
2021/04/10 09:48:46;;;;;;;9.23;4.87;;;11.40;82.60;;;;;;5121180;23;20460;-82
2021/04/10 09:51:04;;;;;;;8.50;3.30;;;11.40;80.40;;;;;;5120714;23;20453;-81
2021/04/10 09:53:08;;;;;;;8.40;4.00;;;11.60;79.60;;;;;;5127820;23;20446;-83
2021/04/10 09:55:11;;;;;;;5.30;2.73;;;11.80;79.40;;;;;;5121644;23;20747;-81
2021/04/10 09:57:30;;;;;;;6.20;2.97;;;11.70;77.70;;;;;;5126230;23;20497;-81
2021/04/10 09:59:32;;;;;;;7.23;2.90;;;11.50;78.40;;;;;;5117291;23;20456;-84
2021/04/10 10:01:38;;;;;;;3.47;2.50;;;11.60;79.80;;;;;;5126236;23;20503;-83
2021/04/10 10:03:41;;;;;;;6.90;3.33;;;11.80;79.30;;;;;;5126261;23;21187;-83
2021/04/10 10:05:44;;;;;;;4.37;2.70;;;11.80;79.50;;;;;;5127457;23;20453;-84
2021/04/10 10:07:47;;;;;;;6.83;2.80;;;12.00;79.30;;;;;;5127850;23;20450;-83
2021/04/10 10:10:06;;;;;;;6.30;3.00;;;12.30;79.90;;;;;;5125823;23;20953;-84
2021/04/10 10:12:27;;;;;;;8.67;2.93;;;12.20;78.70;;;;;;5118035;23;20453;-83
2021/04/10 10:14:45;;;;;;;8.50;3.40;;;12.40;79.40;;;;;;5127402;23;20449;-84
2021/04/10 10:16:47;;;;;;;6.00;2.90;;;12.50;76.80;;;;;;5127402;23;20449;-84
2021/04/10 10:18:52;;;;;;;4.67;2.93;;;12.60;77.70;;;;;;5125654;23;20453;-82
2021/04/10 10:20:58;;;;;;;6.17;2.50;;;12.80;76.50;;;;;;5127472;23;20511;-83
2021/04/10 10:23:14;;;;;;;5.53;2.70;;;13.10;76.30;;;;;;5126993;23;20446;-84
2021/04/10 10:25:17;;;;;;;7.90;3.10;;;13.40;75.00;;;;;;5126709;23;20525;-83
2021/04/10 10:27:41;;;;;;;7.40;2.90;;;13.60;73.70;;;;;;5126607;23;20445;-83
2021/04/10 10:29:43;;;;;;;4.00;2.70;;;13.80;73.50;;;;;;5125705;23;20481;-83
2021/04/10 10:31:49;;;;;;;8.13;2.80;;;13.90;74.50;;;;;;5126563;23;20504;-83
2021/04/10 10:33:52;;;;;;;4.00;2.70;;;14.00;72.40;;;;;;5126591;23;20449;-83
2021/04/10 10:35:54;;;;;;;5.70;2.40;;;13.90;71.30;;;;;;5126105;23;20456;-84
2021/04/10 10:37:57;;;;;;;8.27;2.70;;;14.00;70.70;;;;;;5125364;23;20450;-83
2021/04/10 10:40:20;;;;;;;6.13;2.50;;;14.10;70.20;;;;;;5125627;23;20450;-84
2021/04/10 10:42:25;;;;;;;4.90;2.60;;;14.20;70.70;;;;;;5126519;23;20457;-83
2021/04/10 10:44:28;;;;;;;4.00;2.63;;;14.50;70.00;;;;;;5127088;23;21261;-85
2021/04/10 10:46:30;;;;;;;3.80;2.33;;;14.50;69.40;;;;;;5126545;23;20449;-85
2021/04/10 10:48:34;;;;;;;4.13;2.50;;;14.50;68.30;;;;;;5125156;23;20508;-83
2021/04/10 10:50:35;;;;;;;7.03;3.00;;;14.30;68.10;;;;;;5125351;23;20449;-84
2021/04/10 10:52:38;;;;;;;6.47;3.40;;;13.90;68.10;;;;;;5125812;23;20449;-84